createdAt,value
2019-05-06T00:00:09.126Z,44.40
2019-05-06T00:02:40.519Z,44.70
2019-05-06T00:05:10.344Z,45.80
2019-05-06T00:07:41.636Z,44.70
2019-05-06T00:10:26.604Z,45.00
2019-05-06T00:12:56.722Z,45.60
2019-05-06T00:15:28.421Z,45.00
2019-05-06T00:17:58.217Z,45.20
2019-05-06T00:20:27.991Z,46.50
2019-05-06T00:22:59.264Z,46.30
2019-05-06T00:25:34.874Z,44.60
2019-05-06T00:28:26.734Z,45.00
2019-05-06T00:31:09.617Z,44.90
2019-05-06T00:33:29.346Z,45.00
2019-05-06T00:36:00.566Z,44.70
2019-05-06T00:38:30.324Z,44.80
2019-05-06T00:41:03.910Z,44.70
2019-05-06T00:43:34.523Z,45.20
2019-05-06T00:46:04.813Z,44.70
2019-05-06T00:48:35.654Z,45.30
2019-05-06T00:51:05.318Z,46.20
2019-05-06T00:53:36.552Z,45.20
2019-05-06T00:56:06.182Z,45.90
2019-05-06T00:58:35.760Z,45.40
2019-05-06T01:01:05.789Z,45.50
2019-05-06T01:03:35.356Z,45.40
2019-05-06T01:06:05.201Z,46.20
2019-05-06T01:08:35.051Z,47.20
2019-05-06T01:11:06.312Z,47.20
2019-05-06T01:13:54.508Z,45.80
2019-05-06T01:16:24.961Z,46.60
2019-05-06T01:18:54.787Z,46.20
2019-05-06T01:21:24.434Z,46.40
2019-05-06T01:23:54.584Z,46.70
2019-05-06T01:26:24.429Z,47.20
2019-05-06T01:28:54.686Z,47.20
2019-05-06T01:31:28.895Z,47.50
2019-05-06T01:33:55.874Z,48.00
2019-05-06T01:36:25.525Z,49.10
2019-05-06T01:38:56.821Z,48.60
2019-05-06T01:41:46.030Z,49.70
2019-05-06T01:44:15.694Z,49.40
2019-05-06T01:46:45.428Z,50.50
2019-05-06T01:49:15.070Z,50.60
2019-05-06T01:51:44.724Z,51.10
2019-05-06T01:54:14.391Z,51.30
2019-05-06T01:56:44.594Z,51.70
2019-05-06T01:59:14.273Z,50.40
2019-05-06T02:01:56.930Z,51.80
2019-05-06T02:04:15.176Z,52.40
2019-05-06T02:06:44.856Z,54.30
2019-05-06T02:09:16.130Z,51.70
2019-05-06T02:11:47.911Z,52.00
2019-05-06T02:14:17.168Z,52.90
2019-05-06T02:16:46.799Z,53.20
2019-05-06T02:19:16.376Z,52.90
2019-05-06T02:21:47.579Z,53.30
2019-05-06T02:24:21.463Z,54.10
2019-05-06T02:26:51.105Z,53.80
2019-05-06T02:29:24.454Z,55.50
2019-05-06T02:32:16.094Z,55.30
2019-05-06T02:34:46.513Z,54.30
2019-05-06T02:37:17.801Z,53.80
2019-05-06T02:39:47.411Z,55.20
2019-05-06T02:42:18.105Z,55.90
2019-05-06T02:44:47.688Z,55.20
2019-05-06T02:47:34.474Z,54.90
2019-05-06T02:50:07.037Z,55.00
2019-05-06T02:52:36.692Z,55.10
2019-05-06T02:55:07.119Z,56.20
2019-05-06T02:57:36.808Z,55.40
2019-05-06T03:00:18.420Z,54.90
2019-05-06T03:02:48.655Z,55.40
2019-05-06T03:05:18.353Z,55.60
2019-05-06T03:07:48.034Z,56.20
2019-05-06T03:10:18.376Z,56.00
2019-05-06T03:12:47.953Z,56.50
2019-05-06T03:15:17.680Z,54.80
2019-05-06T03:17:47.345Z,56.00
2019-05-06T03:20:58.725Z,56.00
2019-05-06T03:23:48.158Z,56.30
2019-05-06T03:26:17.746Z,56.10
2019-05-06T03:28:47.387Z,58.40
2019-05-06T03:31:17.357Z,56.10
2019-05-06T03:34:08.292Z,57.50
2019-05-06T03:36:25.547Z,56.60
2019-05-06T03:38:49.443Z,55.60
2019-05-06T03:41:19.115Z,57.30
2019-05-06T03:43:48.713Z,57.60
2019-05-06T03:46:22.968Z,56.90
2019-05-06T03:49:03.701Z,56.00
2019-05-06T03:51:34.210Z,56.30
2019-05-06T03:54:04.614Z,57.00
2019-05-06T03:56:36.066Z,56.10
2019-05-06T03:59:07.116Z,57.20
2019-05-06T04:01:36.849Z,56.80
2019-05-06T04:04:06.510Z,56.00
2019-05-06T04:06:36.469Z,55.70
2019-05-06T04:09:06.145Z,57.00
2019-05-06T04:11:36.659Z,57.20
2019-05-06T04:14:07.784Z,56.50
2019-05-06T04:16:53.228Z,58.40
2019-05-06T04:19:24.029Z,57.00
2019-05-06T04:22:12.857Z,56.20
2019-05-06T04:24:54.032Z,56.10
2019-05-06T04:27:28.280Z,56.70
2019-05-06T04:29:59.043Z,56.60
2019-05-06T04:32:28.607Z,56.80
2019-05-06T04:34:58.255Z,56.00
2019-05-06T04:37:27.834Z,56.60
2019-05-06T04:39:57.516Z,56.00
2019-05-06T04:42:27.250Z,57.00
2019-05-06T04:44:56.815Z,57.20
2019-05-06T04:47:26.624Z,56.80
2019-05-06T04:49:56.355Z,56.10
2019-05-06T04:52:26.258Z,56.50
2019-05-06T04:54:57.408Z,55.70
2019-05-06T04:57:26.967Z,56.30
2019-05-06T04:59:56.558Z,55.40
2019-05-06T05:02:28.256Z,55.50
2019-05-06T05:04:57.905Z,56.20
2019-05-06T05:07:27.629Z,56.00
2019-05-06T05:10:03.475Z,56.00
2019-05-06T05:12:34.983Z,55.60
2019-05-06T05:15:17.056Z,55.00
2019-05-06T05:17:48.300Z,55.50
2019-05-06T05:20:17.962Z,55.00
2019-05-06T05:22:47.561Z,55.40
2019-05-06T05:25:17.204Z,55.60
2019-05-06T05:27:46.934Z,54.60
2019-05-06T05:30:16.772Z,54.50
2019-05-06T05:32:46.552Z,53.90
2019-05-06T05:35:16.201Z,54.00
2019-05-06T05:37:45.900Z,54.40
2019-05-06T05:40:15.636Z,53.20
2019-05-06T05:42:55.890Z,53.40
2019-05-06T05:45:25.709Z,53.60
2019-05-06T05:47:57.416Z,53.30
2019-05-06T05:50:32.500Z,53.70
2019-05-06T05:53:03.336Z,53.60
2019-05-06T05:55:33.299Z,52.90
2019-05-06T05:58:03.296Z,51.90
2019-05-06T06:00:35.343Z,52.10
2019-05-06T06:03:16.227Z,51.60
2019-05-06T06:05:45.815Z,51.60
2019-05-06T06:08:15.456Z,52.20
2019-05-06T06:10:49.661Z,51.10
2019-05-06T06:13:19.406Z,50.50
2019-05-06T06:15:52.172Z,50.10
2019-05-06T06:18:29.208Z,50.20
2019-05-06T06:21:17.944Z,50.40
2019-05-06T06:23:39.336Z,50.20
2019-05-06T06:26:08.999Z,49.80
2019-05-06T06:28:38.686Z,49.50
2019-05-06T06:31:18.810Z,49.70
2019-05-06T06:33:52.839Z,49.40
2019-05-06T06:36:39.346Z,48.10
2019-05-06T06:39:12.452Z,44.80
2019-05-06T06:41:42.390Z,46.10
2019-05-06T06:44:16.577Z,45.90
2019-05-06T06:46:46.161Z,44.90
2019-05-06T06:49:15.830Z,44.30
2019-05-06T06:51:45.494Z,43.00
2019-05-06T06:54:15.076Z,42.60
2019-05-06T06:56:46.368Z,43.10
2019-05-06T06:59:22.229Z,43.60
2019-05-06T07:02:02.594Z,43.90
2019-05-06T07:04:39.394Z,43.20
2019-05-06T07:07:09.076Z,43.30
2019-05-06T07:09:38.724Z,42.90
2019-05-06T07:12:08.448Z,42.90
2019-05-06T07:14:38.075Z,42.90
2019-05-06T07:17:07.814Z,43.30
2019-05-06T07:19:39.110Z,43.10
2019-05-06T07:22:08.755Z,43.00
2019-05-06T07:24:38.345Z,42.20
2019-05-06T07:27:09.560Z,42.40
2019-05-06T07:29:39.149Z,42.10
2019-05-06T07:32:08.881Z,42.40
2019-05-06T07:34:38.614Z,42.40
2019-05-06T07:37:08.262Z,42.60
2019-05-06T07:39:37.850Z,42.90
2019-05-06T07:42:09.150Z,43.10
2019-05-06T07:44:56.751Z,42.50
2019-05-06T07:47:33.831Z,42.90
2019-05-06T07:50:04.799Z,44.10
2019-05-06T07:52:34.451Z,44.70
2019-05-06T07:55:05.672Z,45.20
2019-05-06T07:57:35.242Z,46.40
2019-05-06T08:00:06.602Z,47.80
2019-05-06T08:02:36.338Z,46.80
2019-05-06T08:05:07.655Z,46.20
2019-05-06T08:07:37.560Z,46.10
2019-05-06T08:10:07.472Z,46.20
2019-05-06T08:12:37.127Z,45.80
2019-05-06T08:15:07.941Z,45.30
2019-05-06T08:17:39.216Z,45.80
2019-05-06T08:20:09.070Z,45.20
2019-05-06T08:22:43.193Z,45.30
2019-05-06T08:25:13.263Z,45.30
2019-05-06T08:27:42.913Z,46.70
2019-05-06T08:30:13.169Z,46.60
2019-05-06T08:32:42.925Z,47.20
2019-05-06T08:35:14.318Z,47.20
2019-05-06T08:37:44.950Z,47.40
2019-05-06T08:40:15.251Z,45.70
2019-05-06T08:42:44.822Z,46.10
2019-05-06T08:45:14.859Z,47.00
2019-05-06T08:47:44.522Z,46.90
2019-05-06T08:50:27.908Z,45.80
2019-05-06T08:53:05.242Z,44.50
2019-05-06T08:55:37.633Z,44.80
2019-05-06T08:58:07.273Z,41.10
2019-05-06T09:00:38.792Z,37.50
2019-05-06T09:03:08.432Z,36.60
2019-05-06T09:05:38.022Z,37.50
2019-05-06T09:08:07.676Z,36.70
2019-05-06T09:10:37.335Z,36.70
2019-05-06T09:13:06.984Z,35.70
2019-05-06T09:15:36.621Z,34.30
2019-05-06T09:18:06.337Z,35.70
2019-05-06T09:20:35.999Z,32.80
2019-05-06T09:23:05.662Z,32.40
2019-05-06T09:25:35.246Z,33.40
2019-05-06T09:28:23.390Z,35.10
2019-05-06T09:31:02.220Z,32.80
2019-05-06T09:33:33.646Z,32.50
2019-05-06T09:36:03.531Z,30.90
2019-05-06T09:38:33.206Z,34.10
2019-05-06T09:41:04.975Z,34.20
2019-05-06T09:43:34.122Z,35.80
2019-05-06T09:46:03.980Z,35.40
2019-05-06T09:48:52.594Z,35.70
2019-05-06T09:51:22.241Z,36.50
2019-05-06T09:54:09.901Z,35.30
2019-05-06T09:56:42.750Z,34.40
2019-05-06T09:59:12.955Z,34.60
2019-05-06T10:01:43.958Z,34.00
2019-05-06T10:04:13.641Z,32.80
2019-05-06T10:06:55.737Z,33.90
2019-05-06T10:09:16.161Z,34.10
2019-05-06T10:11:46.158Z,32.60
2019-05-06T10:14:15.932Z,33.70
2019-05-06T10:16:45.641Z,33.40
2019-05-06T10:19:15.384Z,33.60
2019-05-06T10:21:45.028Z,33.40
2019-05-06T10:24:14.699Z,31.90
2019-05-06T10:26:45.988Z,32.30
2019-05-06T10:29:22.121Z,32.20
2019-05-06T10:31:54.228Z,32.60
2019-05-06T10:34:24.880Z,33.40
2019-05-06T10:37:18.011Z,34.20
2019-05-06T10:39:39.228Z,34.40
2019-05-06T10:42:13.046Z,34.40
2019-05-06T10:44:45.989Z,34.90
2019-05-06T10:47:15.681Z,35.40
2019-05-06T10:49:45.314Z,34.50
2019-05-06T10:52:16.621Z,33.70
2019-05-06T10:54:46.208Z,33.10
2019-05-06T10:57:23.208Z,33.40
2019-05-06T10:59:53.402Z,33.90
2019-05-06T11:02:27.418Z,33.10
2019-05-06T11:04:57.089Z,34.10
2019-05-06T11:07:31.283Z,33.30
2019-05-06T11:09:58.087Z,33.00
2019-05-06T11:12:27.771Z,32.50
2019-05-06T11:14:57.466Z,33.10
2019-05-06T11:17:27.192Z,32.80
2019-05-06T11:19:56.795Z,30.00
2019-05-06T11:22:26.456Z,28.80
2019-05-06T11:24:56.073Z,29.70
2019-05-06T11:27:32.116Z,29.40
2019-05-06T11:30:02.307Z,30.40
2019-05-06T11:32:44.627Z,31.30
2019-05-06T11:35:16.168Z,30.70
2019-05-06T11:37:54.328Z,30.50
2019-05-06T11:40:24.166Z,30.00
2019-05-06T11:42:53.872Z,32.60
2019-05-06T11:45:23.522Z,35.30
2019-05-06T11:47:55.870Z,35.40
2019-05-06T11:50:25.542Z,37.70
2019-05-06T11:52:55.932Z,37.80
2019-05-06T11:55:30.846Z,37.50
2019-05-06T11:57:57.173Z,36.80
2019-05-06T12:00:33.236Z,37.00
2019-05-06T12:03:02.358Z,36.30
2019-05-06T12:05:32.999Z,35.70
2019-05-06T12:08:08.101Z,35.40
2019-05-06T12:10:34.242Z,35.00
2019-05-06T12:13:03.902Z,35.40
2019-05-06T12:15:33.616Z,36.30
2019-05-06T12:18:04.016Z,35.90
2019-05-06T12:20:33.867Z,36.60
2019-05-06T12:23:04.527Z,36.50
2019-05-06T12:25:34.484Z,36.50
2019-05-06T12:28:04.183Z,36.40
2019-05-06T12:30:33.844Z,36.50
2019-05-06T12:33:05.122Z,36.40
2019-05-06T12:35:36.506Z,37.20
2019-05-06T12:38:24.916Z,37.00
2019-05-06T12:40:39.197Z,37.60
2019-05-06T12:43:25.818Z,39.00
2019-05-06T12:46:06.149Z,39.90
2019-05-06T12:48:37.456Z,40.10
2019-05-06T12:51:07.109Z,40.90
2019-05-06T12:53:36.753Z,40.50
2019-05-06T12:56:06.362Z,40.70
2019-05-06T12:58:36.006Z,41.40
2019-05-06T13:01:06.136Z,41.60
2019-05-06T13:03:35.847Z,40.10
2019-05-06T13:06:07.973Z,41.80
2019-05-06T13:08:53.946Z,39.10
2019-05-06T13:11:08.340Z,37.10
2019-05-06T13:13:53.151Z,37.10
2019-05-06T13:16:09.448Z,36.50
2019-05-06T13:18:39.092Z,35.50
2019-05-06T13:21:08.828Z,35.70
2019-05-06T13:23:43.031Z,34.90
2019-05-06T13:26:12.954Z,35.40
2019-05-06T13:28:44.340Z,35.40
2019-05-06T13:31:20.794Z,33.20
2019-05-06T13:33:55.816Z,33.90
2019-05-06T13:36:25.466Z,33.40
2019-05-06T13:39:09.784Z,33.60
2019-05-06T13:41:26.425Z,32.80
2019-05-06T13:44:02.536Z,33.10
2019-05-06T13:46:33.594Z,32.00
2019-05-06T13:49:04.876Z,31.10
2019-05-06T13:51:39.028Z,29.50
2019-05-06T13:54:08.643Z,29.40
2019-05-06T13:56:38.308Z,27.90
2019-05-06T13:59:07.952Z,28.40
2019-05-06T14:01:43.957Z,28.20
2019-05-06T14:04:15.038Z,28.10
2019-05-06T14:06:44.729Z,28.50
2019-05-06T14:09:28.687Z,27.60
2019-05-06T14:11:46.771Z,28.10
2019-05-06T14:14:16.406Z,28.30
2019-05-06T14:16:46.038Z,28.60
2019-05-06T14:19:15.634Z,26.80
2019-05-06T14:21:45.297Z,25.60
2019-05-06T14:24:17.360Z,25.90
2019-05-06T14:26:58.132Z,25.80
2019-05-06T14:29:26.508Z,25.90
2019-05-06T14:31:57.953Z,24.50
2019-05-06T14:34:27.610Z,24.60
2019-05-06T14:36:57.252Z,24.90
2019-05-06T14:39:44.740Z,25.20
2019-05-06T14:42:01.873Z,24.30
2019-05-06T14:44:32.668Z,24.00
2019-05-06T14:47:17.268Z,23.20
2019-05-06T14:49:47.406Z,24.30
2019-05-06T14:52:17.083Z,24.50
2019-05-06T14:54:53.232Z,25.90
2019-05-06T14:57:23.594Z,24.90
2019-05-06T14:59:55.705Z,24.60
2019-05-06T15:02:27.156Z,24.90
2019-05-06T15:04:57.017Z,24.00
2019-05-06T15:07:26.623Z,23.30
2019-05-06T15:10:15.166Z,23.90
2019-05-06T15:12:27.734Z,24.20
2019-05-06T15:14:57.425Z,25.00
2019-05-06T15:17:27.078Z,24.70
2019-05-06T15:19:56.776Z,24.90
2019-05-06T15:22:26.492Z,24.80
2019-05-06T15:24:56.079Z,23.30
2019-05-06T15:27:25.740Z,24.70
2019-05-06T15:29:56.965Z,25.00
2019-05-06T15:32:31.242Z,25.40
2019-05-06T15:35:17.552Z,25.70
2019-05-06T15:37:57.561Z,25.30
2019-05-06T15:40:32.753Z,26.10
2019-05-06T15:42:58.537Z,25.60
2019-05-06T15:45:28.181Z,25.20
2019-05-06T15:47:57.849Z,25.00
2019-05-06T15:50:27.471Z,24.80
2019-05-06T15:52:57.182Z,24.80
2019-05-06T15:55:26.846Z,24.70
2019-05-06T15:57:56.522Z,25.00
2019-05-06T16:00:26.536Z,25.30
2019-05-06T16:02:56.258Z,25.80
2019-05-06T16:05:26.702Z,27.10
2019-05-06T16:07:56.520Z,27.10
2019-05-06T16:10:26.226Z,27.30
2019-05-06T16:12:55.827Z,27.00
2019-05-06T16:15:25.462Z,26.50
2019-05-06T16:17:55.121Z,27.50
2019-05-06T16:20:24.778Z,26.00
2019-05-06T16:22:56.112Z,27.10
2019-05-06T16:25:26.852Z,26.70
2019-05-06T16:27:57.383Z,27.10
2019-05-06T16:30:27.110Z,27.40
2019-05-06T16:32:56.674Z,27.30
2019-05-06T16:35:26.322Z,27.20
2019-05-06T16:37:55.976Z,28.00
2019-05-06T16:40:25.927Z,27.60
2019-05-06T16:42:55.669Z,27.00
2019-05-06T16:45:25.313Z,27.00
2019-05-06T16:47:55.042Z,27.10
2019-05-06T16:50:25.396Z,27.20
2019-05-06T16:52:55.089Z,27.20
2019-05-06T16:55:26.392Z,27.10
2019-05-06T16:58:06.593Z,27.10
2019-05-06T17:00:37.723Z,27.20
2019-05-06T17:03:14.954Z,27.60
2019-05-06T17:06:02.729Z,28.00
2019-05-06T17:08:35.464Z,28.40
2019-05-06T17:11:04.742Z,28.70
2019-05-06T17:13:37.715Z,28.80
2019-05-06T17:16:06.297Z,29.00
2019-05-06T17:18:35.949Z,29.30
2019-05-06T17:21:05.919Z,29.40
2019-05-06T17:23:35.674Z,29.40
2019-05-06T17:26:05.243Z,30.00
2019-05-06T17:28:36.577Z,29.60
2019-05-06T17:31:07.872Z,29.60
2019-05-06T17:33:39.143Z,30.40
2019-05-06T17:36:12.573Z,29.80
2019-05-06T17:38:52.578Z,30.90
2019-05-06T17:41:23.769Z,31.00
2019-05-06T17:43:53.560Z,30.80
2019-05-06T17:46:27.518Z,31.30
2019-05-06T17:49:12.842Z,31.70
2019-05-06T17:51:44.097Z,31.70
2019-05-06T17:54:13.779Z,31.70
2019-05-06T17:56:43.516Z,31.80
2019-05-06T17:59:13.485Z,32.80
2019-05-06T18:01:48.071Z,33.50
2019-05-06T18:04:17.783Z,35.60
2019-05-06T18:06:47.746Z,36.90
2019-05-06T18:09:17.299Z,35.30
2019-05-06T18:11:58.544Z,36.50
2019-05-06T18:14:20.095Z,38.10
2019-05-06T18:16:49.810Z,36.60
2019-05-06T18:19:19.400Z,36.40
2019-05-06T18:21:49.102Z,36.60
2019-05-06T18:24:18.746Z,37.00
2019-05-06T18:26:48.400Z,37.00
2019-05-06T18:29:18.132Z,37.30
2019-05-06T18:31:47.846Z,38.40
2019-05-06T18:34:17.607Z,37.60
2019-05-06T18:36:47.250Z,38.10
2019-05-06T18:39:17.037Z,37.80
2019-05-06T18:41:46.691Z,37.70
2019-05-06T18:44:16.281Z,38.40
2019-05-06T18:46:46.124Z,37.70
2019-05-06T18:49:15.803Z,37.30
2019-05-06T18:51:46.233Z,37.30
2019-05-06T18:54:15.995Z,37.30
2019-05-06T18:56:45.645Z,37.00
2019-05-06T18:59:15.340Z,37.50
2019-05-06T19:01:44.921Z,37.90
2019-05-06T19:04:24.928Z,40.90
2019-05-06T19:07:09.395Z,41.70
2019-05-06T19:09:32.576Z,41.00
2019-05-06T19:12:03.604Z,41.50
2019-05-06T19:14:33.597Z,41.90
2019-05-06T19:17:03.522Z,42.20
2019-05-06T19:19:34.873Z,42.30
2019-05-06T19:22:04.638Z,42.40
2019-05-06T19:24:34.471Z,42.60
2019-05-06T19:27:04.220Z,43.00
2019-05-06T19:29:33.918Z,43.00
2019-05-06T19:32:03.685Z,42.90
2019-05-06T19:34:35.296Z,43.40
2019-05-06T19:37:04.600Z,43.80
2019-05-06T19:39:34.287Z,43.70
2019-05-06T19:42:05.104Z,43.70
2019-05-06T19:44:34.978Z,43.70
2019-05-06T19:47:04.641Z,43.80
2019-05-06T19:49:34.284Z,43.90
2019-05-06T19:52:03.948Z,44.00
2019-05-06T19:54:33.610Z,43.60
2019-05-06T19:57:03.178Z,44.40
2019-05-06T19:59:33.222Z,44.30
2019-05-06T20:02:05.039Z,45.90
2019-05-06T20:04:35.319Z,46.50
2019-05-06T20:07:09.418Z,47.30
2019-05-06T20:09:53.008Z,49.10
2019-05-06T20:12:25.323Z,47.30
2019-05-06T20:14:56.630Z,47.30
2019-05-06T20:17:26.307Z,47.70
2019-05-06T20:19:55.956Z,46.50
2019-05-06T20:22:25.658Z,46.70
2019-05-06T20:24:55.310Z,46.40
2019-05-06T20:27:24.972Z,46.20
2019-05-06T20:29:54.597Z,46.10
2019-05-06T20:32:24.279Z,45.90
2019-05-06T20:34:53.928Z,47.10
2019-05-06T20:37:23.617Z,46.00
2019-05-06T20:39:54.550Z,47.40
2019-05-06T20:42:24.223Z,46.90
2019-05-06T20:44:53.887Z,46.20
2019-05-06T20:47:23.553Z,46.40
2019-05-06T20:49:53.161Z,47.20
2019-05-06T20:52:23.095Z,46.80
2019-05-06T20:54:52.834Z,46.60
2019-05-06T20:57:23.062Z,47.40
2019-05-06T20:59:52.786Z,46.80
2019-05-06T21:02:25.558Z,48.00
2019-05-06T21:04:53.654Z,46.80
2019-05-06T21:07:23.322Z,48.10
2019-05-06T21:09:53.056Z,47.20
2019-05-06T21:12:22.704Z,48.40
2019-05-06T21:14:52.476Z,48.30
2019-05-06T21:17:23.143Z,49.30
2019-05-06T21:19:52.860Z,48.80
2019-05-06T21:22:22.551Z,48.90
2019-05-06T21:24:52.218Z,49.50
2019-05-06T21:27:23.013Z,49.80
2019-05-06T21:29:52.885Z,49.90
2019-05-06T21:32:22.620Z,49.80
2019-05-06T21:34:52.582Z,50.50
2019-05-06T21:37:22.890Z,50.70
2019-05-06T21:39:53.048Z,51.20
2019-05-06T21:42:24.079Z,51.70
2019-05-06T21:44:53.765Z,51.00
2019-05-06T21:47:23.417Z,50.40
2019-05-06T21:49:53.112Z,51.30
2019-05-06T21:52:34.265Z,51.00
2019-05-06T21:54:54.066Z,51.60
2019-05-06T21:57:23.663Z,50.70
2019-05-06T21:59:53.426Z,50.60
2019-05-06T22:02:23.126Z,50.70
2019-05-06T22:04:55.484Z,51.10
2019-05-06T22:07:24.001Z,51.80
2019-05-06T22:09:53.594Z,51.80
2019-05-06T22:12:24.521Z,50.70
2019-05-06T22:14:54.418Z,50.70
2019-05-06T22:17:24.176Z,51.70
2019-05-06T22:19:53.825Z,52.60
2019-05-06T22:22:25.040Z,51.70
2019-05-06T22:24:57.619Z,52.80
2019-05-06T22:27:27.526Z,52.20
2019-05-06T22:29:57.198Z,52.20
2019-05-06T22:32:26.849Z,52.10
2019-05-06T22:34:56.568Z,51.60
2019-05-06T22:37:26.258Z,51.60
2019-05-06T22:39:55.974Z,52.80
2019-05-06T22:42:25.636Z,53.40
2019-05-06T22:44:55.368Z,53.10
2019-05-06T22:47:25.115Z,53.50
2019-05-06T22:49:54.830Z,54.00
2019-05-06T22:52:24.571Z,53.20
2019-05-06T22:54:54.170Z,55.90
2019-05-06T22:57:23.840Z,54.20
2019-05-06T22:59:53.728Z,54.60
2019-05-06T23:02:32.151Z,54.80
2019-05-06T23:05:04.563Z,53.10
2019-05-06T23:07:34.412Z,53.30
2019-05-06T23:10:07.245Z,53.00
2019-05-06T23:12:37.974Z,53.20
2019-05-06T23:15:08.444Z,54.20
2019-05-06T23:17:38.101Z,53.00
2019-05-06T23:20:07.820Z,52.40
2019-05-06T23:22:37.517Z,53.90
2019-05-06T23:25:07.226Z,52.60
2019-05-06T23:27:36.890Z,53.10
2019-05-06T23:30:07.307Z,53.10
2019-05-06T23:32:36.931Z,53.40
2019-05-06T23:35:06.979Z,52.90
2019-05-06T23:38:12.963Z,52.90
2019-05-06T23:41:18.834Z,52.90
2019-05-06T23:44:24.580Z,53.60
2019-05-06T23:47:30.480Z,54.10
2019-05-06T23:50:36.747Z,53.50
2019-05-06T23:53:42.658Z,54.50
2019-05-06T23:56:42.897Z,55.50
2019-05-06T23:59:16.566Z,54.90
